sensor_id;sensor_type;location;lat;lon;timestamp;pressure;altitude;pressure_sealevel;temperature;humidity
46303;BME280;32029;51.358;5.628;2023-02-19T00:01:24;101579.19;;;12.74;100.00
46303;BME280;32029;51.358;5.628;2023-02-19T00:03:54;101582.63;;;12.77;100.00
46303;BME280;32029;51.358;5.628;2023-02-19T00:06:22;101579.19;;;12.74;100.00
46303;BME280;32029;51.358;5.628;2023-02-19T00:08:49;101566.19;;;12.68;100.00
46303;BME280;32029;51.358;5.628;2023-02-19T00:11:21;101583.00;;;12.73;100.00
46303;BME280;32029;51.358;5.628;2023-02-19T00:13:51;101579.19;;;12.74;100.00
46303;BME280;32029;51.358;5.628;2023-02-19T00:18:46;101577.78;;;12.79;100.00
46303;BME280;32029;51.358;5.628;2023-02-19T00:21:14;101557.91;;;12.68;100.00
46303;BME280;32029;51.358;5.628;2023-02-19T00:23:41;101571.34;;;12.86;100.00
46303;BME280;32029;51.358;5.628;2023-02-19T00:26:11;101559.25;;;12.72;99.60
46303;BME280;32029;51.358;5.628;2023-02-19T00:28:38;101582.38;;;12.86;99.66
46303;BME280;32029;51.358;5.628;2023-02-19T00:31:06;101582.88;;;12.90;99.44
46303;BME280;32029;51.358;5.628;2023-02-19T00:33:34;101575.94;;;12.94;99.12
46303;BME280;32029;51.358;5.628;2023-02-19T00:36:02;101579.56;;;12.94;98.74
46303;BME280;32029;51.358;5.628;2023-02-19T00:38:29;101580.78;;;12.92;98.65
46303;BME280;32029;51.358;5.628;2023-02-19T00:40:59;101561.09;;;12.80;98.67
46303;BME280;32029;51.358;5.628;2023-02-19T00:43:26;101586.66;;;12.89;99.05
46303;BME280;32029;51.358;5.628;2023-02-19T00:45:53;101570.00;;;12.82;98.41
46303;BME280;32029;51.358;5.628;2023-02-19T00:48:19;101572.22;;;12.87;98.31
46303;BME280;32029;51.358;5.628;2023-02-19T00:50:46;101566.59;;;12.80;98.34
46303;BME280;32029;51.358;5.628;2023-02-19T00:53:13;101580.09;;;12.90;98.06
46303;BME280;32029;51.358;5.628;2023-02-19T00:55:40;101586.31;;;12.92;98.10
46303;BME280;32029;51.358;5.628;2023-02-19T00:58:06;101589.34;;;12.97;97.61
46303;BME280;32029;51.358;5.628;2023-02-19T01:00:33;101581.66;;;12.92;97.29
46303;BME280;32029;51.358;5.628;2023-02-19T01:03:00;101582.44;;;13.01;97.13
46303;BME280;32029;51.358;5.628;2023-02-19T01:05:26;101591.19;;;13.05;97.20
46303;BME280;32029;51.358;5.628;2023-02-19T01:07:53;101588.34;;;13.13;96.92
46303;BME280;32029;51.358;5.628;2023-02-19T01:10:20;101588.00;;;13.16;96.14
46303;BME280;32029;51.358;5.628;2023-02-19T01:12:46;101587.16;;;13.15;96.04
46303;BME280;32029;51.358;5.628;2023-02-19T01:15:13;101600.34;;;13.20;95.72
46303;BME280;32029;51.358;5.628;2023-02-19T01:17:40;101602.06;;;13.21;95.63
46303;BME280;32029;51.358;5.628;2023-02-19T01:20:07;101597.06;;;13.24;95.22
46303;BME280;32029;51.358;5.628;2023-02-19T01:22:33;101602.50;;;13.33;95.09
46303;BME280;32029;51.358;5.628;2023-02-19T01:25:00;101601.44;;;13.34;94.45
46303;BME280;32029;51.358;5.628;2023-02-19T01:27:27;101605.63;;;13.30;94.50
46303;BME280;32029;51.358;5.628;2023-02-19T01:29:53;101602.22;;;13.28;94.90
46303;BME280;32029;51.358;5.628;2023-02-19T01:32:20;101604.91;;;13.36;93.90
46303;BME280;32029;51.358;5.628;2023-02-19T01:34:48;101596.03;;;13.26;93.89
46303;BME280;32029;51.358;5.628;2023-02-19T01:37:15;101593.25;;;13.26;93.94
46303;BME280;32029;51.358;5.628;2023-02-19T01:39:41;101561.38;;;13.08;93.64
46303;BME280;32029;51.358;5.628;2023-02-19T01:42:13;101603.75;;;13.30;93.69
46303;BME280;32029;51.358;5.628;2023-02-19T01:47:08;101613.91;;;13.30;92.94
46303;BME280;32029;51.358;5.628;2023-02-19T01:49:48;101612.75;;;13.24;93.25
46303;BME280;32029;51.358;5.628;2023-02-19T01:52:25;101615.69;;;13.22;93.06
46303;BME280;32029;51.358;5.628;2023-02-19T01:54:55;101619.97;;;13.25;92.97
46303;BME280;32029;51.358;5.628;2023-02-19T01:57:25;101618.38;;;13.31;93.13
46303;BME280;32029;51.358;5.628;2023-02-19T01:59:58;101615.91;;;13.36;92.13
46303;BME280;32029;51.358;5.628;2023-02-19T02:02:27;101627.31;;;13.33;91.65
46303;BME280;32029;51.358;5.628;2023-02-19T02:04:55;101620.47;;;13.29;92.16
46303;BME280;32029;51.358;5.628;2023-02-19T02:07:23;101610.78;;;13.33;91.71
46303;BME280;32029;51.358;5.628;2023-02-19T02:10:10;101613.81;;;13.38;91.34
46303;BME280;32029;51.358;5.628;2023-02-19T02:12:48;101592.59;;;13.23;90.83
46303;BME280;32029;51.358;5.628;2023-02-19T02:15:16;101603.00;;;13.36;90.78
46303;BME280;32029;51.358;5.628;2023-02-19T02:18:02;101615.91;;;13.36;90.29
46303;BME280;32029;51.358;5.628;2023-02-19T02:20:52;101603.34;;;13.33;90.28
46303;BME280;32029;51.358;5.628;2023-02-19T02:23:39;101611.63;;;13.33;90.46
46303;BME280;32029;51.358;5.628;2023-02-19T02:29:43;101614.22;;;13.35;89.69
46303;BME280;32029;51.358;5.628;2023-02-19T02:32:14;101610.47;;;13.28;89.47
46303;BME280;32029;51.358;5.628;2023-02-19T02:34:53;101614.94;;;13.29;89.49
46303;BME280;32029;51.358;5.628;2023-02-19T02:37:23;101609.06;;;13.32;89.65
46303;BME280;32029;51.358;5.628;2023-02-19T02:39:51;101616.97;;;13.35;89.18
46303;BME280;32029;51.358;5.628;2023-02-19T02:42:19;101619.72;;;13.35;89.18
46303;BME280;32029;51.358;5.628;2023-02-19T02:44:56;101616.28;;;13.33;89.05
46303;BME280;32029;51.358;5.628;2023-02-19T02:47:51;101613.03;;;13.29;88.93
46303;BME280;32029;51.358;5.628;2023-02-19T02:50:28;101578.25;;;13.05;89.14
46303;BME280;32029;51.358;5.628;2023-02-19T02:53:01;101621.19;;;13.22;89.12
46303;BME280;32029;51.358;5.628;2023-02-19T02:55:49;101609.56;;;13.12;88.99
46303;BME280;32029;51.358;5.628;2023-02-19T02:58:19;101622.28;;;13.13;89.13
46303;BME280;32029;51.358;5.628;2023-02-19T03:00:53;101602.69;;;13.08;88.85
46303;BME280;32029;51.358;5.628;2023-02-19T03:03:42;101625.34;;;13.18;89.33
46303;BME280;32029;51.358;5.628;2023-02-19T03:06:14;101638.09;;;13.19;89.66
46303;BME280;32029;51.358;5.628;2023-02-19T03:09:12;101627.78;;;13.13;93.21
46303;BME280;32029;51.358;5.628;2023-02-19T03:11:44;101636.88;;;12.99;94.07
46303;BME280;32029;51.358;5.628;2023-02-19T03:14:36;101641.47;;;12.84;95.58
46303;BME280;32029;51.358;5.628;2023-02-19T03:17:34;101648.38;;;12.80;96.23
46303;BME280;32029;51.358;5.628;2023-02-19T03:20:23;101639.78;;;12.74;97.09
46303;BME280;32029;51.358;5.628;2023-02-19T03:22:51;101654.78;;;12.72;97.88
46303;BME280;32029;51.358;5.628;2023-02-19T03:25:21;101660.50;;;12.62;97.79
46303;BME280;32029;51.358;5.628;2023-02-19T03:28:10;101662.25;;;12.55;98.60
46303;BME280;32029;51.358;5.628;2023-02-19T03:30:43;101652.34;;;12.46;99.11
46303;BME280;32029;51.358;5.628;2023-02-19T03:33:18;101639.28;;;12.40;98.94
46303;BME280;32029;51.358;5.628;2023-02-19T03:35:56;101667.16;;;12.45;99.84
46303;BME280;32029;51.358;5.628;2023-02-19T03:38:28;101627.50;;;12.23;99.57
46303;BME280;32029;51.358;5.628;2023-02-19T03:41:06;101669.56;;;12.40;98.77
46303;BME280;32029;51.358;5.628;2023-02-19T03:43:47;101661.00;;;12.35;98.56
46303;BME280;32029;51.358;5.628;2023-02-19T03:49:00;101652.63;;;12.20;98.16
46303;BME280;32029;51.358;5.628;2023-02-19T03:51:37;101645.25;;;12.12;97.55
46303;BME280;32029;51.358;5.628;2023-02-19T03:54:19;101674.44;;;12.30;97.55
46303;BME280;32029;51.358;5.628;2023-02-19T03:56:51;101687.16;;;12.31;97.87
46303;BME280;32029;51.358;5.628;2023-02-19T04:02:17;101683.19;;;12.33;96.84
46303;BME280;32029;51.358;5.628;2023-02-19T04:05:13;101697.81;;;12.34;96.13
46303;BME280;32029;51.358;5.628;2023-02-19T04:07:45;101689.38;;;12.35;96.56
46303;BME280;32029;51.358;5.628;2023-02-19T04:10:15;101717.38;;;12.39;95.87
46303;BME280;32029;51.358;5.628;2023-02-19T04:12:48;101713.09;;;12.36;97.19
46303;BME280;32029;51.358;5.628;2023-02-19T04:15:24;101711.75;;;12.24;98.08
46303;BME280;32029;51.358;5.628;2023-02-19T04:17:57;101713.03;;;12.13;99.38
46303;BME280;32029;51.358;5.628;2023-02-19T04:20:27;101714.56;;;12.08;100.00
46303;BME280;32029;51.358;5.628;2023-02-19T04:22:55;101713.72;;;11.99;99.76
46303;BME280;32029;51.358;5.628;2023-02-19T04:25:25;101715.44;;;11.92;100.00
46303;BME280;32029;51.358;5.628;2023-02-19T04:27:53;101707.88;;;11.86;100.00
46303;BME280;32029;51.358;5.628;2023-02-19T04:30:20;101684.88;;;11.70;100.00
46303;BME280;32029;51.358;5.628;2023-02-19T04:32:47;101721.63;;;11.86;100.00
46303;BME280;32029;51.358;5.628;2023-02-19T04:35:14;101715.47;;;11.84;99.97
46303;BME280;32029;51.358;5.628;2023-02-19T04:37:40;101709.09;;;11.75;100.00
46303;BME280;32029;51.358;5.628;2023-02-19T04:40:08;101724.72;;;11.83;100.00
46303;BME280;32029;51.358;5.628;2023-02-19T04:42:35;101727.13;;;11.86;100.00
46303;BME280;32029;51.358;5.628;2023-02-19T04:45:02;101737.97;;;11.87;99.40
46303;BME280;32029;51.358;5.628;2023-02-19T04:47:30;101732.47;;;11.87;99.05
46303;BME280;32029;51.358;5.628;2023-02-19T04:49:57;101743.13;;;11.82;98.42
46303;BME280;32029;51.358;5.628;2023-02-19T04:52:24;101749.81;;;11.80;98.85
46303;BME280;32029;51.358;5.628;2023-02-19T04:54:50;101752.22;;;11.83;99.21
46303;BME280;32029;51.358;5.628;2023-02-19T04:57:17;101759.81;;;11.89;98.78
46303;BME280;32029;51.358;5.628;2023-02-19T04:59:45;101760.16;;;11.94;98.36
46303;BME280;32029;51.358;5.628;2023-02-19T05:02:12;101769.09;;;11.96;97.61
46303;BME280;32029;51.358;5.628;2023-02-19T05:04:38;101768.03;;;11.97;97.70
46303;BME280;32029;51.358;5.628;2023-02-19T05:07:06;101770.44;;;12.00;97.10
46303;BME280;32029;51.358;5.628;2023-02-19T05:09:32;101776.13;;;11.98;96.93
46303;BME280;32029;51.358;5.628;2023-02-19T05:11:59;101789.69;;;12.00;96.62
46303;BME280;32029;51.358;5.628;2023-02-19T05:14:26;101773.38;;;11.98;96.32
46303;BME280;32029;51.358;5.628;2023-02-19T05:16:52;101791.06;;;12.04;96.52
46303;BME280;32029;51.358;5.628;2023-02-19T05:19:19;101789.88;;;12.07;95.78
46303;BME280;32029;51.358;5.628;2023-02-19T05:21:46;101788.69;;;12.09;95.94
46303;BME280;32029;51.358;5.628;2023-02-19T05:24:13;101796.94;;;12.09;97.57
46303;BME280;32029;51.358;5.628;2023-02-19T05:26:39;101796.25;;;12.07;98.37
46303;BME280;32029;51.358;5.628;2023-02-19T05:29:06;101795.19;;;12.00;98.74
46303;BME280;32029;51.358;5.628;2023-02-19T05:31:33;101803.97;;;11.95;99.43
46303;BME280;32029;51.358;5.628;2023-02-19T05:33:59;101805.19;;;11.93;99.47
46303;BME280;32029;51.358;5.628;2023-02-19T05:36:26;101806.41;;;11.90;100.00
46303;BME280;32029;51.358;5.628;2023-02-19T05:38:54;101803.81;;;11.89;99.59
46303;BME280;32029;51.358;5.628;2023-02-19T05:41:26;101808.78;;;11.85;100.00
46303;BME280;32029;51.358;5.628;2023-02-19T05:43:53;101808.97;;;11.92;100.00
46303;BME280;32029;51.358;5.628;2023-02-19T05:46:23;101811.19;;;11.96;99.80
46303;BME280;32029;51.358;5.628;2023-02-19T05:48:51;101800.03;;;11.90;99.67
46303;BME280;32029;51.358;5.628;2023-02-19T05:51:21;101780.06;;;11.80;99.47
46303;BME280;32029;51.358;5.628;2023-02-19T05:53:48;101814.13;;;11.95;98.76
46303;BME280;32029;51.358;5.628;2023-02-19T05:56:39;101814.81;;;11.89;98.87
46303;BME280;32029;51.358;5.628;2023-02-19T05:59:16;101814.81;;;11.89;98.67
46303;BME280;32029;51.358;5.628;2023-02-19T06:01:43;101822.38;;;11.87;98.59
46303;BME280;32029;51.358;5.628;2023-02-19T06:04:11;101808.22;;;11.82;98.76
46303;BME280;32029;51.358;5.628;2023-02-19T06:06:38;101799.66;;;11.76;99.00
46303;BME280;32029;51.358;5.628;2023-02-19T06:09:06;101827.03;;;11.86;98.67
46303;BME280;32029;51.358;5.628;2023-02-19T06:11:33;101804.28;;;11.76;98.78
46303;BME280;32029;51.358;5.628;2023-02-19T06:14:00;101823.56;;;11.84;98.80
46303;BME280;32029;51.358;5.628;2023-02-19T06:16:27;101822.72;;;11.84;98.68
46303;BME280;32029;51.358;5.628;2023-02-19T06:18:54;101816.66;;;11.80;98.49
46303;BME280;32029;51.358;5.628;2023-02-19T06:21:21;101826.47;;;11.83;99.02
46303;BME280;32029;51.358;5.628;2023-02-19T06:23:47;101823.75;;;11.91;99.63
46303;BME280;32029;51.358;5.628;2023-02-19T06:26:20;101830.28;;;11.98;98.64
46303;BME280;32029;51.358;5.628;2023-02-19T06:28:48;101810.13;;;11.81;97.54
46303;BME280;32029;51.358;5.628;2023-02-19T06:31:16;101817.84;;;11.77;97.14
46303;BME280;32029;51.358;5.628;2023-02-19T06:33:43;101812.53;;;11.68;97.75
46303;BME280;32029;51.358;5.628;2023-02-19T06:36:13;101846.44;;;11.85;97.70
46303;BME280;32029;51.358;5.628;2023-02-19T06:38:40;101853.31;;;11.89;97.98
46303;BME280;32029;51.358;5.628;2023-02-19T06:41:08;101864.81;;;11.92;97.29
46303;BME280;32029;51.358;5.628;2023-02-19T06:43:35;101857.63;;;11.91;97.01
46303;BME280;32029;51.358;5.628;2023-02-19T06:46:03;101859.50;;;11.91;96.86
46303;BME280;32029;51.358;5.628;2023-02-19T06:48:31;101843.66;;;11.76;96.85
46303;BME280;32029;51.358;5.628;2023-02-19T06:50:58;101872.94;;;11.94;96.96
46303;BME280;32029;51.358;5.628;2023-02-19T06:53:25;101883.22;;;12.00;96.56
46303;BME280;32029;51.358;5.628;2023-02-19T06:56:02;101882.91;;;12.03;96.15
46303;BME280;32029;51.358;5.628;2023-02-19T06:58:30;101882.38;;;12.08;95.61
46303;BME280;32029;51.358;5.628;2023-02-19T07:00:57;101876.72;;;12.09;94.69
46303;BME280;32029;51.358;5.628;2023-02-19T07:03:24;101887.53;;;12.11;94.63
46303;BME280;32029;51.358;5.628;2023-02-19T07:05:51;101889.09;;;12.13;94.36
46303;BME280;32029;51.358;5.628;2023-02-19T07:08:18;101892.19;;;12.18;94.59
46303;BME280;32029;51.358;5.628;2023-02-19T07:10:52;101888.06;;;12.22;93.72
46303;BME280;32029;51.358;5.628;2023-02-19T07:13:19;101898.53;;;12.27;93.26
46303;BME280;32029;51.358;5.628;2023-02-19T07:15:45;101887.72;;;12.25;92.78
46303;BME280;32029;51.358;5.628;2023-02-19T07:18:12;101895.59;;;12.29;92.19
46303;BME280;32029;51.358;5.628;2023-02-19T07:20:39;101895.97;;;12.25;91.80
46303;BME280;32029;51.358;5.628;2023-02-19T07:23:05;101903.53;;;12.23;91.62
46303;BME280;32029;51.358;5.628;2023-02-19T07:25:32;101909.38;;;12.20;91.39
46303;BME280;32029;51.358;5.628;2023-02-19T07:27:59;101913.84;;;12.21;91.29
46303;BME280;32029;51.358;5.628;2023-02-19T07:30:25;101919.00;;;12.24;92.10
46303;BME280;32029;51.358;5.628;2023-02-19T07:32:52;101919.34;;;12.30;91.12
46303;BME280;32029;51.358;5.628;2023-02-19T07:35:19;101902.00;;;12.21;90.92
46303;BME280;32029;51.358;5.628;2023-02-19T07:37:45;101929.31;;;12.31;90.93
46303;BME280;32029;51.358;5.628;2023-02-19T07:40:12;101921.94;;;12.23;90.83
46303;BME280;32029;51.358;5.628;2023-02-19T07:42:39;101946.19;;;12.36;90.60
46303;BME280;32029;51.358;5.628;2023-02-19T07:45:05;101944.13;;;12.38;91.17
46303;BME280;32029;51.358;5.628;2023-02-19T07:47:32;101954.63;;;12.42;90.93
46303;BME280;32029;51.358;5.628;2023-02-19T07:49:59;101941.53;;;12.36;90.65
46303;BME280;32029;51.358;5.628;2023-02-19T07:52:26;101959.78;;;12.45;92.22
46303;BME280;32029;51.358;5.628;2023-02-19T07:54:53;101964.44;;;12.37;93.66
46303;BME280;32029;51.358;5.628;2023-02-19T07:57:20;101949.25;;;12.16;95.14
46303;BME280;32029;51.358;5.628;2023-02-19T07:59:46;101977.63;;;12.17;95.95
46303;BME280;32029;51.358;5.628;2023-02-19T08:02:18;101981.25;;;12.09;96.95
46303;BME280;32029;51.358;5.628;2023-02-19T08:05:05;101961.59;;;11.88;98.02
46303;BME280;32029;51.358;5.628;2023-02-19T08:07:35;101988.09;;;11.97;98.45
46303;BME280;32029;51.358;5.628;2023-02-19T08:10:03;101919.53;;;11.53;98.67
46303;BME280;32029;51.358;5.628;2023-02-19T08:12:59;102001.16;;;11.95;99.53
46303;BME280;32029;51.358;5.628;2023-02-19T08:15:55;102010.28;;;11.95;99.57
46303;BME280;32029;51.358;5.628;2023-02-19T08:18:25;102012.50;;;11.92;99.27
46303;BME280;32029;51.358;5.628;2023-02-19T08:20:53;102006.13;;;11.83;99.97
46303;BME280;32029;51.358;5.628;2023-02-19T08:23:21;102016.59;;;11.88;99.64
46303;BME280;32029;51.358;5.628;2023-02-19T08:25:49;102005.56;;;11.80;99.93
46303;BME280;32029;51.358;5.628;2023-02-19T08:28:16;102026.75;;;11.87;100.00
46303;BME280;32029;51.358;5.628;2023-02-19T08:30:44;102025.91;;;11.87;100.00
46303;BME280;32029;51.358;5.628;2023-02-19T08:33:18;102027.94;;;11.85;100.00
46303;BME280;32029;51.358;5.628;2023-02-19T08:35:46;102039.31;;;11.90;100.00
46303;BME280;32029;51.358;5.628;2023-02-19T08:38:13;102037.59;;;11.97;100.00
46303;BME280;32029;51.358;5.628;2023-02-19T08:40:42;102030.56;;;11.94;100.00
46303;BME280;32029;51.358;5.628;2023-02-19T08:43:12;102012.81;;;11.89;99.96
46303;BME280;32029;51.358;5.628;2023-02-19T08:45:41;102041.78;;;12.09;100.00
46303;BME280;32029;51.358;5.628;2023-02-19T08:48:09;102041.81;;;12.17;100.00
46303;BME280;32029;51.358;5.628;2023-02-19T08:50:36;102038.03;;;12.18;100.00
46303;BME280;32029;51.358;5.628;2023-02-19T08:53:05;102041.31;;;12.30;99.79
46303;BME280;32029;51.358;5.628;2023-02-19T08:55:32;102046.47;;;12.33;100.00
46303;BME280;32029;51.358;5.628;2023-02-19T08:57:59;102046.63;;;12.40;100.00
46303;BME280;32029;51.358;5.628;2023-02-19T09:00:26;102045.63;;;12.41;99.26
46303;BME280;32029;51.358;5.628;2023-02-19T09:02:52;102041.50;;;12.45;99.30
46303;BME280;32029;51.358;5.628;2023-02-19T09:05:19;102049.78;;;12.45;98.57
46303;BME280;32029;51.358;5.628;2023-02-19T09:07:46;102043.56;;;12.43;99.28
46303;BME280;32029;51.358;5.628;2023-02-19T09:10:13;102057.66;;;12.48;98.62
46303;BME280;32029;51.358;5.628;2023-02-19T09:12:40;102059.94;;;12.53;98.72
46303;BME280;32029;51.358;5.628;2023-02-19T09:15:08;102065.78;;;12.58;98.49
46303;BME280;32029;51.358;5.628;2023-02-19T09:17:34;102072.66;;;12.70;98.31
46303;BME280;32029;51.358;5.628;2023-02-19T09:20:01;102074.56;;;12.78;97.15
46303;BME280;32029;51.358;5.628;2023-02-19T09:22:29;102069.06;;;12.78;96.97
46303;BME280;32029;51.358;5.628;2023-02-19T09:24:56;102072.84;;;12.77;97.43
46303;BME280;32029;51.358;5.628;2023-02-19T09:27:22;102068.38;;;12.84;97.25
46303;BME280;32029;51.358;5.628;2023-02-19T09:29:49;102052.00;;;12.74;96.54
46303;BME280;32029;51.358;5.628;2023-02-19T09:32:16;102047.53;;;12.81;96.40
46303;BME280;32029;51.358;5.628;2023-02-19T09:34:42;102074.22;;;12.97;95.38
46303;BME280;32029;51.358;5.628;2023-02-19T09:37:09;102073.88;;;12.92;94.49
46303;BME280;32029;51.358;5.628;2023-02-19T09:39:36;102038.25;;;12.66;95.26
46303;BME280;32029;51.358;5.628;2023-02-19T09:42:18;102071.47;;;12.89;95.19
46303;BME280;32029;51.358;5.628;2023-02-19T09:44:49;102076.28;;;12.95;94.56
46303;BME280;32029;51.358;5.628;2023-02-19T09:47:19;102071.13;;;13.00;94.39
46303;BME280;32029;51.358;5.628;2023-02-19T09:49:48;102080.75;;;13.04;93.76
46303;BME280;32029;51.358;5.628;2023-02-19T09:52:39;102079.38;;;13.08;93.76
46303;BME280;32029;51.358;5.628;2023-02-19T09:57:54;102095.72;;;13.18;92.50
46303;BME280;32029;51.358;5.628;2023-02-19T10:00:24;102079.19;;;13.10;91.57
46303;BME280;32029;51.358;5.628;2023-02-19T10:02:54;102112.66;;;13.23;91.34
46303;BME280;32029;51.358;5.628;2023-02-19T10:05:23;102125.91;;;13.28;90.99
46303;BME280;32029;51.358;5.628;2023-02-19T10:07:52;102114.38;;;13.24;90.93
46303;BME280;32029;51.358;5.628;2023-02-19T10:10:27;102129.00;;;13.33;91.05
46303;BME280;32029;51.358;5.628;2023-02-19T10:13:00;102122.81;;;13.39;90.55
46303;BME280;32029;51.358;5.628;2023-02-19T10:15:43;102133.81;;;13.47;90.35
46303;BME280;32029;51.358;5.628;2023-02-19T10:18:11;102137.22;;;13.57;89.70
46303;BME280;32029;51.358;5.628;2023-02-19T10:20:38;102131.53;;;13.67;89.50
46303;BME280;32029;51.358;5.628;2023-02-19T10:23:07;102139.78;;;13.75;88.55
46303;BME280;32029;51.358;5.628;2023-02-19T10:25:40;102120.16;;;13.70;88.46
46303;BME280;32029;51.358;5.628;2023-02-19T10:28:13;102139.91;;;13.90;87.58
46303;BME280;32029;51.358;5.628;2023-02-19T10:30:40;102136.06;;;13.99;87.65
46303;BME280;32029;51.358;5.628;2023-02-19T10:33:12;102145.91;;;14.02;86.94
46303;BME280;32029;51.358;5.628;2023-02-19T10:36:03;102157.41;;;14.13;85.37
46303;BME280;32029;51.358;5.628;2023-02-19T10:38:36;102127.63;;;14.01;86.19
46303;BME280;32029;51.358;5.628;2023-02-19T10:41:07;102157.38;;;14.21;85.70
46303;BME280;32029;51.358;5.628;2023-02-19T10:43:42;102171.00;;;14.23;85.67
46303;BME280;32029;51.358;5.628;2023-02-19T10:46:21;102187.91;;;14.28;85.60
46303;BME280;32029;51.358;5.628;2023-02-19T10:48:51;102186.38;;;14.17;87.84
46303;BME280;32029;51.358;5.628;2023-02-19T10:51:19;102194.66;;;14.17;87.93
46303;BME280;32029;51.358;5.628;2023-02-19T10:56:46;102205.72;;;14.17;86.00
46303;BME280;32029;51.358;5.628;2023-02-19T10:59:25;102205.34;;;14.20;84.50
46303;BME280;32029;51.358;5.628;2023-02-19T11:01:56;102206.88;;;14.23;84.32
46303;BME280;32029;51.358;5.628;2023-02-19T11:04:25;102193.25;;;14.30;83.89
46303;BME280;32029;51.358;5.628;2023-02-19T11:06:52;102190.63;;;14.36;83.48
46303;BME280;32029;51.358;5.628;2023-02-19T11:09:29;102200.78;;;14.44;82.85
46303;BME280;32029;51.358;5.628;2023-02-19T11:11:58;102202.84;;;14.42;81.49
46303;BME280;32029;51.358;5.628;2023-02-19T11:14:25;102192.88;;;14.33;82.52
46303;BME280;32029;51.358;5.628;2023-02-19T11:16:55;102211.38;;;14.24;82.81
46303;BME280;32029;51.358;5.628;2023-02-19T11:19:45;102217.25;;;14.21;81.69
46303;BME280;32029;51.358;5.628;2023-02-19T11:22:35;102212.59;;;14.21;82.09
46303;BME280;32029;51.358;5.628;2023-02-19T11:27:52;102199.97;;;14.27;79.72
46303;BME280;32029;51.358;5.628;2023-02-19T11:30:31;102093.78;;;13.67;79.85
46303;BME280;32029;51.358;5.628;2023-02-19T11:33:21;102187.22;;;14.26;80.93
46303;BME280;32029;51.358;5.628;2023-02-19T11:35:50;102176.16;;;14.26;79.46
46303;BME280;32029;51.358;5.628;2023-02-19T11:38:18;102180.31;;;14.22;79.58
46303;BME280;32029;51.358;5.628;2023-02-19T11:43:48;102180.34;;;14.14;79.34
46303;BME280;32029;51.358;5.628;2023-02-19T11:46:41;102191.25;;;14.07;80.62
46303;BME280;32029;51.358;5.628;2023-02-19T11:49:36;102150.59;;;13.93;80.83
46303;BME280;32029;51.358;5.628;2023-02-19T11:52:17;102178.97;;;14.18;80.11
46303;BME280;32029;51.358;5.628;2023-02-19T11:55:13;102186.72;;;14.14;79.24
46303;BME280;32029;51.358;5.628;2023-02-19T12:00:52;102186.03;;;14.20;78.50
46303;BME280;32029;51.358;5.628;2023-02-19T12:03:48;102178.25;;;14.24;78.56
46303;BME280;32029;51.358;5.628;2023-02-19T12:12:03;102182.41;;;14.20;77.63
46303;BME280;32029;51.358;5.628;2023-02-19T12:20:29;102172.66;;;14.40;77.56
46303;BME280;32029;51.358;5.628;2023-02-19T12:26:13;102178.47;;;14.54;76.73
46303;BME280;32029;51.358;5.628;2023-02-19T12:29:06;102176.53;;;14.62;76.01
46303;BME280;32029;51.358;5.628;2023-02-19T12:34:30;102173.00;;;14.77;75.91
46303;BME280;32029;51.358;5.628;2023-02-19T12:37:22;102166.00;;;14.89;75.48
46303;BME280;32029;51.358;5.628;2023-02-19T12:39:56;102177.38;;;14.94;75.65
46303;BME280;32029;51.358;5.628;2023-02-19T12:48:05;102175.34;;;14.88;73.94
46303;BME280;32029;51.358;5.628;2023-02-19T12:50:38;102180.56;;;14.83;73.81
46303;BME280;32029;51.358;5.628;2023-02-19T12:53:14;102173.06;;;14.68;73.79
46303;BME280;32029;51.358;5.628;2023-02-19T12:55:44;102177.88;;;14.66;74.15
46303;BME280;32029;51.358;5.628;2023-02-19T12:58:24;102187.22;;;14.65;74.69
46303;BME280;32029;51.358;5.628;2023-02-19T13:00:54;102092.22;;;14.12;73.27
46303;BME280;32029;51.358;5.628;2023-02-19T13:03:31;102176.91;;;14.59;72.88
46303;BME280;32029;51.358;5.628;2023-02-19T13:06:11;102198.50;;;14.56;72.78
46303;BME280;32029;51.358;5.628;2023-02-19T13:08:54;102190.38;;;14.54;73.19
46303;BME280;32029;51.358;5.628;2023-02-19T13:11:27;102198.13;;;14.59;73.04
46303;BME280;32029;51.358;5.628;2023-02-19T13:13:59;102197.78;;;14.62;71.98
46303;BME280;32029;51.358;5.628;2023-02-19T13:16:29;102160.38;;;14.43;72.15
46303;BME280;32029;51.358;5.628;2023-02-19T13:19:00;102206.91;;;14.70;71.81
46303;BME280;32029;51.358;5.628;2023-02-19T13:21:30;102183.59;;;14.65;71.12
46303;BME280;32029;51.358;5.628;2023-02-19T13:24:21;102203.63;;;14.67;70.72
46303;BME280;32029;51.358;5.628;2023-02-19T13:32:24;102203.50;;;14.60;71.06
46303;BME280;32029;51.358;5.628;2023-02-19T13:35:18;102201.78;;;14.59;71.25
46303;BME280;32029;51.358;5.628;2023-02-19T13:37:48;102198.63;;;14.62;71.16
46303;BME280;32029;51.358;5.628;2023-02-19T13:42:57;102209.31;;;14.65;70.45
46303;BME280;32029;51.358;5.628;2023-02-19T13:45:41;102196.25;;;14.59;69.91
46303;BME280;32029;51.358;5.628;2023-02-19T14:04:23;102263.25;;;14.53;70.17
46303;BME280;32029;51.358;5.628;2023-02-19T14:14:41;102250.53;;;14.19;69.73
46303;BME280;32029;51.358;5.628;2023-02-19T14:22:45;102277.13;;;14.04;70.36
46303;BME280;32029;51.358;5.628;2023-02-19T14:27:56;102300.47;;;13.85;70.94
46303;BME280;32029;51.358;5.628;2023-02-19T14:30:26;102294.44;;;13.82;71.03
46303;BME280;32029;51.358;5.628;2023-02-19T14:32:53;102300.81;;;13.82;70.93
46303;BME280;32029;51.358;5.628;2023-02-19T14:35:22;102276.00;;;13.74;70.88
46303;BME280;32029;51.358;5.628;2023-02-19T14:37:51;102309.44;;;13.71;71.06
46303;BME280;32029;51.358;5.628;2023-02-19T14:40:25;102307.19;;;13.66;70.94
46303;BME280;32029;51.358;5.628;2023-02-19T14:42:55;102310.47;;;13.62;71.19